Airfield :
LOGIN :

Register | Disclaimer

   EN    FR    IT 

 










Legend :    VFR   Marginal VFR   IFR   Intensive IFR   Very Intensive IFR
Visi :
Ceiling :
>= 8 km
>= 3000ft
5 to 8 km
1000 to 3000 ft
1500m to 5 km
500 to 1000 ft
800 to 1500m
200 to 500 ft
< 800m
< 200 ft
Symbols :   Thunderstorms  Fog  Heavy snow  Heavy precipitations  Wind > 20 kt
SIGMETs :     Misc.  Thunderstorms  Icing  Turbulence  Mountain Waves  Volcanic Ashes






- Airport Elevation : 17 ft
- IATA code : CPH


EKCH - København - Kastrup (Copenhagen)

CURRENT METAR :
  • 172150Z AUTO 29009KT 9999 NCD 01/M02 Q1028 NOSIG

EXPIRED METARs :
  • 172120Z AUTO 28006KT 9999 NCD 01/M01 Q1028 NOSIG
  • 172050Z AUTO 29008KT 9999 NCD 01/M01 Q1027 NOSIG
  • 172020Z AUTO 28008KT 9999 NCD 01/M02 Q1027 NOSIG
  • 171950Z AUTO 28008KT 9999 NCD 00/M03 Q1026 NOSIG
  • 171920Z AUTO 31009KT 9999 NCD 02/M02 Q1026 NOSIG

TAF TAF EKCH
Valid from the 17 at 18:00 until the 18 at 18:00 UTC


171710Z 1718/1818 32010KT CAVOK
BECMG 1805/1808 26008KT
BECMG 1808/1810 4000 BR BKN007
TEMPO 1810/1818 7000 NSW BKN012



MET'MAP, your aeronautical weather chart ! - Copyright ORBIFLY December 2007 - Disclaimer

ORBIFLY MET'MAP TEAM :

Programming & Development : Alexandra Zaïnal
Concept & original design : Baudouin d'Aumeries
Assistance for programming : Marc-Olivier Méhu
Technical & hardware support : Manuel Goepfert

Contact : metmap@orbifly.com




SOURCES & CREDITS :

   NOAA